Flight Track Log - Related Links

Times and Time Zones

All times are in EDT time to prevent confusion due to time zone crossing. See the N12502 flight status page for this flight to view local times or setup timezone preferences in your user account.

Time Position Orientation Groundspeed Altitude Reporting Facility
EDT Latitude Longitude Course Direction KTS MPH feet Rate Location/Type
Wed 10:05:00 PM 40.5763 -89.4902 123° Southeast  Level Estimated
Wed 10:06:00 PM 40.5522 -89.4677 145° Southeast  Level FlightAware Approximate
Wed 10:07:00 PM 40.5378 -89.4337 118° Southeast  Level Estimated
Wed 10:08:00 PM 40.5229 -89.4001 120° Southeast  Level FlightAware Approximate
Wed 10:09:00 PM 40.5079 -89.3666 120° Southeast  Level FlightAware Approximate
Wed 10:10:00 PM 40.4929 -89.3330 120° Southeast  Level FlightAware Approximate
Wed 10:11:00 PM 40.4779 -89.2995 120° Southeast  Level FlightAware Approximate
Wed 10:12:00 PM 40.4629 -89.2660 120° Southeast  Level FlightAware Approximate
Wed 10:13:00 PM 40.4479 -89.2325 120° Southeast  Level FlightAware Approximate
Wed 10:14:00 PM 40.4336 -89.1985 123° Southeast  Level Estimated
Wed 10:15:00 PM 40.4170 -89.1664 124° Southeast  Level FlightAware Approximate
Wed 10:16:00 PM 40.4028 -89.1324 122° Southeast  Level Estimated
Wed 10:17:00 PM 40.3870 -89.0995 122° Southeast  Level FlightAware Approximate
Wed 10:18:00 PM 40.3712 -89.0667 122° Southeast  Level FlightAware Approximate
Wed 10:19:00 PM 40.3554 -89.0339 122° Southeast  Level FlightAware Approximate
Wed 10:20:00 PM 40.3396 -89.0011 122° Southeast  Level FlightAware Approximate
Wed 10:21:00 PM 40.3238 -88.9683 122° Southeast  Level FlightAware Approximate
Wed 10:22:00 PM 40.3080 -88.9355 122° Southeast  Level FlightAware Approximate
Wed 10:23:00 PM 40.2922 -88.9028 122° Southeast  Level FlightAware Approximate
Wed 10:24:00 PM 40.2764 -88.8700 122° Southeast  Level FlightAware Approximate
Wed 10:25:00 PM 40.2627 -88.8357 118° Southeast  Level Estimated
Wed 10:26:00 PM 40.2489 -88.8014 118° Southeast  Level FlightAware Approximate
Wed 10:27:00 PM 40.2351 -88.7672 118° Southeast  Level FlightAware Approximate
Wed 10:28:00 PM 40.2212 -88.7330 118° Southeast  Level FlightAware Approximate
Wed 10:29:00 PM 40.2074 -88.6988 118° Southeast  Level FlightAware Approximate
Wed 10:30:00 PM 40.1935 -88.6646 118° Southeast  Level FlightAware Approximate
Wed 10:31:00 PM 40.1796 -88.6304 118° Southeast  Level FlightAware Approximate
Wed 10:32:00 PM 40.1657 -88.5962 118° Southeast  Level FlightAware Approximate
Wed 10:33:00 PM 40.1518 -88.5621 118° Southeast  Level FlightAware Approximate
Wed 10:34:00 PM 40.1382 -88.5277 114° Southeast  Level Estimated
Wed 10:35:00 PM 40.1258 -88.4926 115° Southeast  Level FlightAware Approximate
Wed 10:36:00 PM 40.1120 -88.4584 123° Southeast  Level Estimated
Wed 10:37:00 PM 40.0960 -88.4260 123° Southeast  Level FlightAware Approximate
Wed 10:38:00 PM 40.0799 -88.3935 123° Southeast  Level FlightAware Approximate
Wed 10:39:00 PM 40.0638 -88.3611 123° Southeast  Level FlightAware Approximate
Wed 10:39:12 PM 39.9214 -88.1286 108° East 96 110 3,900  Level Chicago Center
Wed 10:40:00 PM 40.0530 -88.3251 108° East  Level Estimated
Wed 10:40:14 PM 39.8956 -88.1111 153° Southeast 97 112 3,700  Level Chicago Center
Wed 10:41:00 PM 40.0411 -88.2898 114° Southeast  Level FlightAware Approximate
Wed 10:41:15 PM 39.8822 -88.0869 126° Southeast 97 112 3,500  Level Chicago Center
Wed 10:42:00 PM 40.0388 -88.2778 108° East  Level Estimated
Wed 10:43:00 PM 40.0388 -88.2778 108° East  Level Estimated
Wed 10:43:00 PM 39.9201 -88.1329 317° Northwest  Level Estimated
Wed 10:44:00 PM 40.0388 -88.2778 108° East  Level Estimated

Login

Don't have an account? Register now (free) for customized features, flight alerts, and more!